Flight Track Log - Related Links

Times and Time Zones

All times are in EDT time to prevent confusion due to time zone crossing. See the SKW6301 flight status page for this flight to view local times or setup timezone preferences in your user account.

Time Position Orientation Groundspeed Altitude Reporting Facility
EDT Latitude Longitude Course Direction KTS MPH feet Rate Location/Type
Sat 12:09:03 AM 39.9000 -104.6500 110° East 215 247 8,400  Level Denver TRACON
Sat 12:10:03 AM 39.8667 -104.5667 118° Southeast 245 282 10,600 2,000 Climbing Denver TRACON
Sat 12:11:03 AM 39.8333 -104.4667 113° Southeast 296 341 12,400 2,164 Climbing Denver TRACON
Sat 12:12:00 AM 39.6601 -103.9260 110° East  Level Estimated
Sat 12:12:05 AM 39.8039 -104.3767 113° Southeast 307 353 15,000  Level Denver Center
Sat 12:13:00 AM 39.6152 -103.7791 112° Southeast  Level FlightAware Approximate
Sat 12:13:06 AM 39.7692 -104.2733 114° Southeast 313 360 17,500  Level Denver Center
Sat 12:14:00 AM 39.5742 -103.6304 110° East  Level Estimated
Sat 12:14:06 AM 39.7317 -104.1661 114° Southeast 326 375 19,600  Level Denver Center
Sat 12:15:07 AM 39.6881 -104.0433 115° Southeast 350 403 21,200 1,770 Climbing Denver Center
Sat 12:16:08 AM 39.6431 -103.9239 116° Southeast 368 423 23,200 1,869 Climbing Denver Center
Sat 12:17:09 AM 39.6008 -103.8208 118° Southeast 369 425 25,000 1,820 Climbing Denver Center
Sat 12:18:10 AM 39.5600 -103.6714 109° East 363 418 26,900 1,636 Climbing Denver Center
Sat 12:19:10 AM 39.5236 -103.5353 109° East 393 452 28,300 1,388 Climbing Denver Center
Sat 12:20:11 AM 39.4850 -103.3975 110° East 406 467 29,700 1,377 Climbing Denver Center
Sat 12:21:12 AM 39.4464 -103.2569 110° East 413 475 31,100 1,377 Climbing Denver Center
Sat 12:22:13 AM 39.4067 -103.1144 110° East 420 483 32,500 1,289 Climbing Denver Center
Sat 12:23:13 AM 39.3669 -102.9706 110° East 424 488 33,700 1,140 Climbing Denver Center
Sat 12:24:14 AM 39.3261 -102.8228 110° East 435 501 34,800 1,082 Climbing Denver Center
Sat 12:25:15 AM 39.2839 -102.6758 110° East 440 506 35,900 1,082 Climbing Denver Center
Sat 12:26:16 AM 39.2436 -102.5322 110° East 444 511 37,000 1,140 Climbing Denver Center
Sat 12:27:16 AM 39.1964 -102.3658 110° East 442 509 38,200 992 Climbing Denver Center
Sat 12:28:17 AM 39.1558 -102.2256 110° East 437 503 39,000 393 Climbing Denver Center
Sat 12:29:18 AM 39.1150 -102.0844 110° East 440 506 39,000  Level Denver Center
Sat 12:30:19 AM 39.0664 -101.9169 110° East 447 514 39,000  Level Denver Center
Sat 12:31:20 AM 39.0247 -101.7725 110° East 449 517 39,000  Level Denver Center
Sat 12:32:20 AM 38.9836 -101.6317 111° Southeast 443 510 39,000  Level Denver Center
Sat 12:33:21 AM 38.9344 -101.4683 111° Southeast 440 506 39,000  Level Denver Center
Sat 12:34:21 AM 38.8931 -101.3272 111° Southeast 440 506 39,000  Level Denver Center
Sat 12:35:22 AM 38.8511 -101.1894 111° Southeast 435 501 39,000  Level Denver Center
Sat 12:36:23 AM 38.8033 -101.0267 111° Southeast 436 502 39,000  Level Denver Center
Sat 12:37:24 AM 38.7619 -100.8889 111° Southeast 433 498 39,000  Level Denver Center
Sat 12:38:24 AM 38.7203 -100.7508 111° Southeast 434 499 39,000  Level Denver Center
Sat 12:39:25 AM 38.6711 -100.5917 112° Southeast 431 496 39,000  Level Denver Center
Sat 12:40:26 AM 38.6289 -100.4542 111° Southeast 431 496 39,000  Level Denver Center
Sat 12:41:19 AM 38.5872 -100.3169 111° Southeast 431 496 39,000  Level Kansas City Center
Sat 12:42:20 AM 38.5439 -100.1789 112° Southeast 435 501 39,000  Level Kansas City Center
Sat 12:43:20 AM 38.5000 -100.0400 112° Southeast 438 504 39,000  Level Kansas City Center
Sat 12:44:21 AM 38.4561 -99.9006 112° Southeast 441 507 39,000  Level Kansas City Center
Sat 12:45:21 AM 38.4044 -99.7361 112° Southeast 445 512 39,000 -200 Level Kansas City Center
Sat 12:46:21 AM 38.3592 -99.5967 112° Southeast 445 512 38,600 -1,091 Descending Kansas City Center
Sat 12:47:22 AM 38.3153 -99.4561 112° Southeast 446 513 36,800 -1,289 Descending Kansas City Center
Sat 12:48:22 AM 38.2672 -99.3042 112° Southeast 459 528 36,000 -397 Descending Kansas City Center
Sat 12:49:23 AM 38.2206 -99.1608 112° Southeast 445 512 36,000  Level Kansas City Center
Sat 12:50:23 AM 38.1772 -99.0247 112° Southeast 426 490 36,000 -446 Level Kansas City Center
Sat 12:51:24 AM 38.1325 -98.8856 112° Southeast 423 487 35,100 -2,182 Descending Kansas City Center
Sat 12:52:24 AM 38.0822 -98.7344 113° Southeast 458 527 31,600 -3,471 Descending Kansas City Center
Sat 12:53:25 AM 38.0342 -98.5867 112° Southeast 456 525 28,100 -3,521 Descending Kansas City Center
Sat 12:54:25 AM 37.9883 -98.4433 112° Southeast 445 512 24,500 -3,972 Descending Kansas City Center
Sat 12:54:36 AM 37.9725 -98.3975 114° Southeast 434 499 23,400 -3,500 Descending Kansas City Center
Sat 12:55:25 AM 37.9431 -98.3061 112° Southeast 429 494 21,000 -3,639 Descending Kansas City Center
Sat 12:55:37 AM 37.9267 -98.2611 115° Southeast 418 481 19,700 -3,836 Descending Kansas City Center
Sat 12:56:26 AM 37.8983 -98.1722 112° Southeast 417 480 17,100 -3,900 Descending Kansas City Center
Sat 12:56:37 AM 37.8833 -98.1294 114° Southeast 411 473 15,800 -3,800 Descending Kansas City Center
Sat 12:57:26 AM 37.8614 -98.0433 108° East 398 458 13,300 -3,639 Descending Kansas City Center
Sat 12:57:38 AM 37.8522 -97.9964 104° East 383 441 12,100 -2,656 Descending Kansas City Center
Sat 12:58:27 AM 37.8325 -97.8950 104° East 371 427 10,600 -1,672 Descending Kansas City Center
Sat 12:58:39 AM 37.8283 -97.8756 105° East 341 392 10,400 -1,100 Descending Kansas City Center
Sat 12:59:27 AM 37.8131 -97.7917 103° East 331 381 9,500 -1,300 Descending Kansas City Center
Sat 12:59:39 AM 37.8106 -97.7747 101° East 279 321 9,100 -1,967 Descending Kansas City Center
Sat 01:00:28 AM 37.7953 -97.6972 104° East 292 336 7,500 -2,060 Descending Kansas City Center
Sat 01:00:46 AM 37.7897 -97.6667 103° East 271 312 6,800 -2,000 Descending Kansas City Center
Sat 01:01:28 AM 37.7797 -97.6047 102° East 280 322 5,500 -2,100 Descending Kansas City Center
Sat 01:01:46 AM 37.7825 -97.5700 84° East 282 325 4,700 -1,475 Descending Kansas City Center
Sat 01:02:29 AM 37.7831 -97.5058 89° East 283 326 4,000 -885 Descending Kansas City Center
Sat 01:02:47 AM 37.7778 -97.4781 104° East 250 288 3,800 -800 Descending Kansas City Center
Sat 01:03:29 AM 37.7625 -97.4294 112° Southeast 241 277 3,200 -689 Descending Kansas City Center
Sat 01:03:48 AM 37.7542 -97.4075 116° Southeast 193 222 3,100 -600 Descending Kansas City Center
Sat 01:04:29 AM 37.7297 -97.4019 170° South 185 213 2,600 -667 Descending Kansas City Center
Sat 01:04:42 AM 37.7206 -97.4075 206° Southwest 112 129 2,500 -393 Descending Kansas City Center
Sat 01:05:30 AM 37.7022 -97.4156 199° South 134 154 2,200 -393 Descending Kansas City Center
Sat 01:05:43 AM 37.6944 -97.4194 202° Southwest 88 101 2,100 -500 Descending Kansas City Center
Sat 01:06:30 AM 37.6750 -97.4272 198° South 112 129 1,700 -600 Descending Kansas City Center
Sat 01:06:43 AM 37.6661 -97.4317 202° Southwest 109 125 1,500 -98 Descending Kansas City Center
Sat 01:07:31 AM 37.6467 -97.4403 199° South 111 128 1,600 125 Climbing Kansas City Center

Login

Don't have an account? Register now (free) for customized features, flight alerts, and more!